Campo di Volo Beltrutta

IT-0044 · 皮埃蒙特, 意大利

罗盘
风向 的 风向 330° Campo di Volo Beltrutta 1/19
风: 5 kt, 2 beaufort

4 kt

3 kt
改变
0 ft 1.000 2.000 3.000 4.000 5.000
Cloud Cloud Cloud Cloud Cloud Cloud
BKN 300
Cloud Cloud Cloud Cloud Cloud Cloud
BKN 3.500
METAR LIMZ 281150Z AUTO 33005KT 9999 -RA BKN003/// BKN035/// 09/09 Q1018 REDZ

METAR Campo di Volo Beltrutta - IT-0044

Campo di Volo Beltrutta是,意大利中的小机场。 该机场位于纬度44,49655和经度7,72308。 该机场有一条跑道: 1/19. 这个机场没有ICAO代码,我们使用IT-0044作为参考。 机场在Milano FIR中。

该航空气象观测是针对Cuneo International Airport在2024年2月28日 12:50, 当地时间进行的。

机场观察

风向为330°,速度为5 kt。

可见度为10 km 或者更多。

有碎云在300 ft的高度 和 碎云在3.500 ft的高度。 破损或更高的上限为300 ft。

当前天气为光 雨。 温度为9 °C,阵风为6 °C。 露点为9 °C,相对湿度为100%。 海平面上的气压为1018 hPa (QNH)。 最近是细雨。

白天

今天,太阳从07:08升起,在18:14降落。 这适用于Campo di Volo Beltrutta,世界夏令时可能有所不同。 当地时间与世界标准时间之间的时差为+1 小时。 当前,没有夏令时有效。

公司介绍

我们没有关于这个机场的公司信息。

体会

到Vliegles.nl去找飞行课程,跳伞和其他飞行体验。 浏览页面,了解Campo di Volo Beltrutta附近所有可用的活动。 你也可以使用搜索功能来寻找你所在地附近的特定飞行课程、跳伞或其他飞行体验。

跑道

Id 标题 侧风 逆风 侧风 %
1/19 010°-190° 3 kt 4 kt 64 %

逆风成分最大的方向会被突出显示,并用于横风计算。 这并不一定意味着这个方向在使用。

乌云

300 ft BKN 碎云
3.500 ft BKN 碎云

温度 & 天气

天气 光 雨
最近的 细雨
温度 9 °C
露点 9 °C
相对湿度 100%
风寒 6 °C
Kp-index 0 (0-9)

白天

日出
07:09
中午
12:42
日落
18:14 (5:06)

小工具

你想在你的网站上有一个关于Campo di Volo Beltrutta的当前航空天气(METAR)的小部件吗?

显示HTML代码
?>